Roanoke, Missouri
Current Conditions -  °F | °C
As of 5:15 PM on Friday 19 Dec 2014 (Local Time) from KVER Reporting Station
Overcast Overcast  
Wind Chill: 32°   Ceiling: 1200
Heat Index: 37°   Visibility: 10mi
Dew Point: 35°   Wind: 6mph
Humidity: 93%   Direction: 120°ESE
Pressure: 30.23"   Gusts: NA
Location:  39.2595°N, 92.7114°W
Report Text: KVER 192315Z AUTO 12005KT 10SM OVC012 03/02 A3023 RMK AO2 T00260015
Loading
Personal Weather Stations






























Interactive Weather Map New forecast layout! Learn more

10-Day Weather Forecast

Advertisements
Track Severe Weather on mobile